Time,TemperatureF,DewpointF,PressureIn,WindDirection,WindDirectionDegrees,WindSpeedMPH,WindSpeedGustMPH,Humidity,HourlyPrecipIn,Conditions,Clouds,dailyrainin,SolarRadiationWatts/m^2,SoftwareType,DateUTC
2013-01-11 00:02:00,23.0,15.0,-100.00,WSW,257,3.0,5.0,71,0.00,,,0.02,1.000000,,2013-01-11 08:02:00,
2013-01-11 00:32:00,23.0,15.0,-100.00,WSW,257,3.0,5.0,71,0.00,,,0.02,1.000000,,2013-01-11 08:32:00,
2013-01-11 00:42:00,23.0,15.0,-100.00,WSW,257,3.0,5.0,71,0.00,,,0.02,1.000000,,2013-01-11 08:42:00,
2013-01-11 00:52:00,23.0,15.0,-100.00,WSW,257,3.0,5.0,71,0.00,,,0.02,1.000000,,2013-01-11 08:52:00,
2013-01-11 01:02:00,23.0,15.0,-100.00,West,260,2.0,6.0,71,0.00,,,0.02,1.000000,,2013-01-11 09:02:00,
2013-01-11 01:32:00,23.0,15.0,-100.00,West,260,2.0,6.0,71,0.00,,,0.02,1.000000,,2013-01-11 09:32:00,
2013-01-11 01:42:00,23.0,15.0,-100.00,West,260,2.0,6.0,71,0.00,,,0.02,1.000000,,2013-01-11 09:42:00,
2013-01-11 01:52:00,23.0,15.0,-100.00,West,260,2.0,6.0,71,0.00,,,0.02,1.000000,,2013-01-11 09:52:00,
2013-01-11 02:02:00,23.0,13.0,-100.00,South,182,1.0,10.0,64,0.00,,,0.02,1.000000,,2013-01-11 10:02:00,
2013-01-11 02:32:00,23.0,13.0,-100.00,South,182,1.0,10.0,64,0.00,,,0.02,1.000000,,2013-01-11 10:32:00,
2013-01-11 02:42:00,23.0,13.0,-100.00,South,182,1.0,10.0,64,0.00,,,0.02,1.000000,,2013-01-11 10:42:00,
2013-01-11 02:52:00,23.0,13.0,-100.00,South,182,1.0,10.0,64,0.00,,,0.02,1.000000,,2013-01-11 10:52:00,
2013-01-11 03:02:00,22.0,15.0,-100.00,WSW,246,3.0,5.0,75,0.00,,,-99.99,1.000000,,2013-01-11 11:02:00,
2013-01-11 03:22:00,22.0,15.0,-100.00,WSW,246,3.0,5.0,75,0.00,,,-99.99,1.000000,,2013-01-11 11:22:00,
2013-01-11 03:33:00,22.0,15.0,-100.00,WSW,246,3.0,5.0,75,0.00,,,-99.99,1.000000,,2013-01-11 11:33:00,
2013-01-11 03:43:00,22.0,15.0,-100.00,WSW,246,3.0,5.0,75,0.00,,,-99.99,1.000000,,2013-01-11 11:43:00,
2013-01-11 03:53:00,22.0,15.0,-100.00,WSW,246,3.0,5.0,75,0.00,,,-99.99,1.000000,,2013-01-11 11:53:00,
2013-01-11 04:02:00,22.0,14.0,-100.00,SW,224,4.0,5.0,70,0.00,,,-99.99,1.000000,,2013-01-11 12:02:00,
2013-01-11 04:23:00,22.0,14.0,-100.00,SW,224,4.0,5.0,70,0.00,,,-99.99,1.000000,,2013-01-11 12:23:00,
2013-01-11 04:33:00,22.0,14.0,-100.00,SW,224,4.0,5.0,70,0.00,,,-99.99,1.000000,,2013-01-11 12:33:00,
2013-01-11 04:43:00,22.0,14.0,-100.00,SW,224,4.0,5.0,70,0.00,,,-99.99,1.000000,,2013-01-11 12:43:00,
2013-01-11 04:53:00,22.0,14.0,-100.00,SW,224,4.0,5.0,70,0.00,,,-99.99,1.000000,,2013-01-11 12:53:00,
2013-01-11 05:02:00,21.0,13.0,-100.00,SE,142,1.0,4.0,71,0.00,,,-99.99,1.000000,,2013-01-11 13:02:00,
2013-01-11 05:22:00,21.0,13.0,-100.00,SE,142,1.0,4.0,71,0.00,,,-99.99,1.000000,,2013-01-11 13:22:00,
2013-01-11 05:33:00,21.0,13.0,-100.00,SE,142,1.0,4.0,71,0.00,,,-99.99,1.000000,,2013-01-11 13:33:00,
2013-01-11 05:43:00,21.0,13.0,-100.00,SE,142,1.0,4.0,71,0.00,,,-99.99,1.000000,,2013-01-11 13:43:00,
2013-01-11 05:52:00,21.0,13.0,-100.00,SE,142,1.0,4.0,71,0.00,,,-99.99,1.000000,,2013-01-11 13:52:00,
2013-01-11 06:02:00,21.0,13.0,-100.00,ENE,64,2.0,7.0,72,0.00,,,0.02,1.000000,,2013-01-11 14:02:00,
2013-01-11 06:33:00,21.0,13.0,-100.00,ENE,64,2.0,7.0,72,0.00,,,0.02,1.000000,,2013-01-11 14:33:00,
2013-01-11 06:43:00,21.0,13.0,-100.00,ENE,64,2.0,7.0,72,0.00,,,0.02,1.000000,,2013-01-11 14:43:00,
2013-01-11 06:53:00,21.0,13.0,-100.00,ENE,64,2.0,7.0,72,0.00,,,0.02,1.000000,,2013-01-11 14:53:00,
2013-01-11 07:02:00,23.0,14.0,-100.00,North,10,2.0,3.0,67,0.00,,,0.02,1.000000,,2013-01-11 15:02:00,
2013-01-11 07:23:00,23.0,14.0,-100.00,North,10,2.0,3.0,67,0.00,,,0.02,1.000000,,2013-01-11 15:23:00,
2013-01-11 07:33:00,23.0,14.0,-100.00,North,10,2.0,3.0,67,0.00,,,0.02,1.000000,,2013-01-11 15:33:00,
2013-01-11 07:43:00,23.0,14.0,-100.00,North,10,2.0,3.0,67,0.00,,,0.02,1.000000,,2013-01-11 15:43:00,
2013-01-11 07:53:00,23.0,14.0,-100.00,North,10,2.0,3.0,67,0.00,,,0.02,1.000000,,2013-01-11 15:53:00,
2013-01-11 08:02:00,21.0,15.0,-100.00,East,86,1.0,5.0,76,0.00,,,0.02,2.000000,,2013-01-11 16:02:00,
2013-01-11 08:33:00,21.0,15.0,-100.00,East,86,1.0,5.0,76,0.00,,,0.02,2.000000,,2013-01-11 16:33:00,
2013-01-11 08:43:00,21.0,15.0,-100.00,East,86,1.0,5.0,76,0.00,,,0.02,2.000000,,2013-01-11 16:43:00,
2013-01-11 08:53:00,21.0,15.0,-100.00,East,86,1.0,5.0,76,0.00,,,0.02,2.000000,,2013-01-11 16:53:00,
2013-01-11 09:02:00,25.0,13.0,-100.00,NW,319,3.0,5.0,59,0.00,,,0.02,3.000000,,2013-01-11 17:02:00,
2013-01-11 09:33:00,25.0,13.0,-100.00,NW,319,3.0,5.0,59,0.00,,,0.02,3.000000,,2013-01-11 17:33:00,
2013-01-11 09:43:00,25.0,13.0,-100.00,NW,319,3.0,5.0,59,0.00,,,0.02,3.000000,,2013-01-11 17:43:00,
2013-01-11 09:53:00,25.0,13.0,-100.00,NW,319,3.0,5.0,59,0.00,,,0.02,3.000000,,2013-01-11 17:53:00,
2013-01-11 10:02:00,26.0,14.0,-100.00,NNW,343,3.0,8.0,60,0.00,,,0.02,1.000000,,2013-01-11 18:02:00,
2013-01-11 10:33:00,26.0,14.0,-100.00,NNW,343,3.0,8.0,60,0.00,,,0.02,1.000000,,2013-01-11 18:33:00,
2013-01-11 10:43:00,26.0,14.0,-100.00,NNW,343,3.0,8.0,60,0.00,,,0.02,1.000000,,2013-01-11 18:43:00,
2013-01-11 10:53:00,26.0,14.0,-100.00,NNW,343,3.0,8.0,60,0.00,,,0.02,1.000000,,2013-01-11 18:53:00,
2013-01-11 11:02:00,27.0,16.0,-100.00,NNW,339,5.0,9.0,63,0.00,,,0.02,5.000000,,2013-01-11 19:02:00,
2013-01-11 11:23:00,27.0,16.0,-100.00,NNW,339,5.0,9.0,63,0.00,,,0.02,5.000000,,2013-01-11 19:23:00,
2013-01-11 11:33:00,27.0,16.0,-100.00,NNW,339,5.0,9.0,63,0.00,,,0.02,5.000000,,2013-01-11 19:33:00,
2013-01-11 11:43:00,27.0,16.0,-100.00,NNW,339,5.0,9.0,63,0.00,,,0.02,5.000000,,2013-01-11 19:43:00,
2013-01-11 11:53:00,27.0,16.0,-100.00,NNW,339,5.0,9.0,63,0.00,,,0.02,5.000000,,2013-01-11 19:53:00,
2013-01-11 12:02:00,29.0,16.0,-100.00,North,357,7.0,12.0,59,0.00,,,0.02,365.000000,,2013-01-11 20:02:00,
2013-01-11 12:33:00,29.0,16.0,-100.00,North,357,7.0,12.0,59,0.00,,,0.02,365.000000,,2013-01-11 20:33:00,
2013-01-11 12:43:00,29.0,16.0,-100.00,North,357,7.0,12.0,59,0.00,,,0.02,365.000000,,2013-01-11 20:43:00,
2013-01-11 12:53:00,29.0,16.0,-100.00,North,357,7.0,12.0,59,0.00,,,0.02,365.000000,,2013-01-11 20:53:00,
2013-01-11 13:02:00,28.0,17.0,-100.00,NNE,33,6.0,13.0,64,0.00,,,0.01,213.000000,,2013-01-11 21:02:00,
2013-01-11 13:33:00,28.0,17.0,-100.00,NNE,33,6.0,13.0,64,0.00,,,0.01,213.000000,,2013-01-11 21:33:00,
2013-01-11 13:43:00,28.0,17.0,-100.00,NNE,33,6.0,13.0,64,0.00,,,0.01,213.000000,,2013-01-11 21:43:00,
2013-01-11 13:53:00,28.0,17.0,-100.00,NNE,33,6.0,13.0,64,0.00,,,0.01,213.000000,,2013-01-11 21:53:00,
2013-01-11 14:02:00,30.0,15.0,-100.00,NNW,344,4.0,12.0,53,0.00,,,0.01,159.000000,,2013-01-11 22:02:00,
2013-01-11 14:23:00,30.0,15.0,-100.00,NNW,344,4.0,12.0,53,0.00,,,0.01,159.000000,,2013-01-11 22:23:00,
2013-01-11 14:33:00,30.0,15.0,-100.00,NNW,344,4.0,12.0,53,0.00,,,0.01,159.000000,,2013-01-11 22:33:00,
2013-01-11 14:42:00,30.0,15.0,-100.00,NNW,344,4.0,12.0,53,0.00,,,0.01,159.000000,,2013-01-11 22:42:00,
2013-01-11 14:53:00,30.0,15.0,-100.00,NNW,344,4.0,12.0,53,0.00,,,0.01,159.000000,,2013-01-11 22:53:00,
2013-01-11 15:02:00,30.0,18.0,-100.00,North,6,7.0,14.0,60,0.00,,,0.01,130.000000,,2013-01-11 23:02:00,
2013-01-11 15:23:00,30.0,18.0,-100.00,North,6,7.0,14.0,60,0.00,,,0.01,130.000000,,2013-01-11 23:23:00,
2013-01-11 15:33:00,30.0,18.0,-100.00,North,6,7.0,14.0,60,0.00,,,0.01,130.000000,,2013-01-11 23:33:00,
2013-01-11 15:43:00,30.0,18.0,-100.00,North,6,7.0,14.0,60,0.00,,,0.01,130.000000,,2013-01-11 23:43:00,
2013-01-11 15:53:00,30.0,18.0,-100.00,North,6,7.0,14.0,60,0.00,,,0.01,130.000000,,2013-01-11 23:53:00,
2013-01-11 16:02:00,27.0,15.0,-100.00,NNE,27,7.0,12.0,60,0.00,,,0.01,56.000000,,2013-01-12 00:02:00,
2013-01-11 16:33:00,27.0,15.0,-100.00,NNE,27,7.0,12.0,60,0.00,,,0.01,56.000000,,2013-01-12 00:33:00,
2013-01-11 16:43:00,27.0,15.0,-100.00,NNE,27,7.0,12.0,60,0.00,,,0.01,56.000000,,2013-01-12 00:43:00,
2013-01-11 16:53:00,27.0,15.0,-100.00,NNE,27,7.0,12.0,60,0.00,,,0.01,56.000000,,2013-01-12 00:53:00,
2013-01-11 17:02:00,23.0,14.0,-100.00,NNE,31,4.0,9.0,69,0.00,,,0.01,29.000000,,2013-01-12 01:02:00,
2013-01-11 17:33:00,23.0,14.0,-100.00,NNE,31,4.0,9.0,69,0.00,,,0.01,29.000000,,2013-01-12 01:33:00,
2013-01-11 17:43:00,23.0,14.0,-100.00,NNE,31,4.0,9.0,69,0.00,,,0.01,29.000000,,2013-01-12 01:43:00,
2013-01-11 17:52:00,23.0,14.0,-100.00,NNE,31,4.0,9.0,69,0.00,,,0.01,29.000000,,2013-01-12 01:52:00,
2013-01-11 18:02:00,20.0,13.0,-100.00,East,93,4.0,4.0,74,0.00,,,0.00,1.000000,,2013-01-12 02:02:00,
2013-01-11 18:33:00,20.0,13.0,-100.00,East,93,4.0,4.0,74,0.00,,,0.00,1.000000,,2013-01-12 02:33:00,
2013-01-11 18:43:00,20.0,13.0,-100.00,East,93,4.0,4.0,74,0.00,,,0.00,1.000000,,2013-01-12 02:43:00,
2013-01-11 18:53:00,20.0,13.0,-100.00,East,93,4.0,4.0,74,0.00,,,0.00,1.000000,,2013-01-12 02:53:00,
2013-01-11 19:02:00,21.0,12.0,-100.00,East,90,5.0,7.0,67,0.00,,,0.00,1.000000,,2013-01-12 03:02:00,
2013-01-11 19:33:00,21.0,12.0,-100.00,East,90,5.0,7.0,67,0.00,,,0.00,1.000000,,2013-01-12 03:33:00,
2013-01-11 19:43:00,21.0,12.0,-100.00,East,90,5.0,7.0,67,0.00,,,0.00,1.000000,,2013-01-12 03:43:00,
2013-01-11 19:53:00,21.0,12.0,-100.00,East,90,5.0,7.0,67,0.00,,,0.00,1.000000,,2013-01-12 03:53:00,
2013-01-11 20:02:00,19.0,12.0,-100.00,WSW,250,4.0,6.0,74,0.00,,,0.00,1.000000,,2013-01-12 04:02:00,
2013-01-11 20:22:00,19.0,12.0,-100.00,WSW,250,4.0,6.0,74,0.00,,,0.00,1.000000,,2013-01-12 04:22:00,
2013-01-11 20:32:00,19.0,12.0,-100.00,WSW,250,4.0,6.0,74,0.00,,,0.00,1.000000,,2013-01-12 04:32:00,
2013-01-11 20:42:00,19.0,12.0,-100.00,WSW,250,4.0,6.0,74,0.00,,,0.00,1.000000,,2013-01-12 04:42:00,
2013-01-11 20:52:00,19.0,12.0,-100.00,WSW,250,4.0,6.0,74,0.00,,,0.00,1.000000,,2013-01-12 04:52:00,
2013-01-11 21:02:00,19.0,11.0,-100.00,South,187,4.0,5.0,69,0.00,,,0.00,1.000000,,2013-01-12 05:02:00,
2013-01-11 21:32:00,19.0,11.0,-100.00,South,187,4.0,5.0,69,0.00,,,0.00,1.000000,,2013-01-12 05:32:00,
2013-01-11 21:42:00,19.0,11.0,-100.00,South,187,4.0,5.0,69,0.00,,,0.00,1.000000,,2013-01-12 05:42:00,
2013-01-11 21:52:00,19.0,11.0,-100.00,South,187,4.0,5.0,69,0.00,,,0.00,1.000000,,2013-01-12 05:52:00,
2013-01-11 22:02:00,17.0,12.0,-100.00,WSW,239,3.0,6.0,80,0.00,,,0.00,1.000000,,2013-01-12 06:02:00,
2013-01-11 22:33:00,17.0,12.0,-100.00,WSW,239,3.0,6.0,80,0.00,,,0.00,1.000000,,2013-01-12 06:33:00,
2013-01-11 22:43:00,17.0,12.0,-100.00,WSW,239,3.0,6.0,80,0.00,,,0.00,1.000000,,2013-01-12 06:43:00,
2013-01-11 22:52:00,17.0,12.0,-100.00,WSW,239,3.0,6.0,80,0.00,,,0.00,1.000000,,2013-01-12 06:52:00,
2013-01-11 23:02:00,16.0,10.0,-100.00,SE,141,2.0,4.0,78,0.00,,,0.00,1.000000,,2013-01-12 07:02:00,
2013-01-11 23:32:00,16.0,10.0,-100.00,SE,141,2.0,4.0,78,0.00,,,0.00,1.000000,,2013-01-12 07:32:00,
2013-01-11 23:42:00,16.0,10.0,-100.00,SE,141,2.0,4.0,78,0.00,,,0.00,1.000000,,2013-01-12 07:42:00,
2013-01-11 23:52:00,16.0,10.0,-100.00,SE,141,2.0,4.0,78,0.00,,,0.00,1.000000,,2013-01-12 07:52:00,